Time;durP1;ratioP1;P1;durP2;ratioP2;P2;SDS_P1;SDS_P2;PMS_P1;PMS_P2;Temp;Humidity;BMP_temperature;BMP_pressure;BME280_temperature;BME280_humidity;BME280_pressure;Samples;Min_cycle;Max_cycle;Signal;HPM_P1;HPM_P2
2022/08/21 00:02:21;;;;;;;4.15;2.10;;;;;;;28.50;49.63;96509.44;5117325;28;20028;-36
2022/08/21 00:04:47;;;;;;;3.65;2.13;;;;;;;28.52;49.52;96506.88;5117518;28;20024;-35
2022/08/21 00:07:13;;;;;;;5.40;2.05;;;;;;;28.56;49.04;96514.91;5117249;28;20030;-35
2022/08/21 00:09:39;;;;;;;6.60;2.42;;;;;;;28.48;49.36;96514.06;5117269;28;20048;-35
2022/08/21 00:12:06;;;;;;;4.25;2.20;;;;;;;28.46;48.96;96514.59;5117497;27;20024;-35
2022/08/21 00:14:32;;;;;;;4.18;2.47;;;;;;;28.44;49.25;96519.22;5117170;28;20027;-35
2022/08/21 00:16:59;;;;;;;3.70;2.55;;;;;;;28.60;48.57;96515.28;5116965;28;20073;-35
2022/08/21 00:19:24;;;;;;;5.15;2.40;;;;;;;28.56;48.84;96518.41;5117630;28;20051;-35
2022/08/21 00:21:52;;;;;;;3.25;2.40;;;;;;;28.38;49.21;96516.59;5117308;28;20059;-35
2022/08/21 00:24:19;;;;;;;2.55;1.90;;;;;;;28.45;49.09;96515.16;5117318;28;20462;-35
2022/08/21 00:26:45;;;;;;;2.50;1.88;;;;;;;28.41;48.84;96517.53;5117214;28;20024;-35
2022/08/21 00:29:10;;;;;;;4.68;2.17;;;;;;;28.43;48.91;96503.81;5116824;28;20050;-35
2022/08/21 00:31:36;;;;;;;2.00;1.80;;;;;;;28.45;48.52;96510.31;5116926;28;20076;-35
2022/08/21 00:34:02;;;;;;;4.75;1.90;;;;;;;28.39;49.00;96514.56;5116717;28;20020;-35
2022/08/21 00:36:29;;;;;;;3.00;1.92;;;;;;;28.38;48.90;96510.25;5116881;28;20020;-35
2022/08/21 00:38:54;;;;;;;3.55;2.25;;;;;;;28.41;48.84;96506.38;5116831;28;20465;-35
2022/08/21 00:41:20;;;;;;;3.65;2.15;;;;;;;28.57;48.78;96508.00;5116772;28;20047;-36
2022/08/21 00:43:46;;;;;;;4.38;2.30;;;;;;;28.47;48.95;96510.53;5116763;28;20100;-35
2022/08/21 00:46:12;;;;;;;3.70;2.17;;;;;;;28.42;49.08;96503.06;5116789;28;20036;-36
2022/08/21 00:48:38;;;;;;;2.75;2.08;;;;;;;28.43;49.16;96507.34;5116779;28;20031;-36
2022/08/21 00:51:13;;;;;;;2.75;2.13;;;;;;;28.47;49.12;96504.94;5116599;28;20020;-35
2022/08/21 00:53:41;;;;;;;4.93;2.30;;;;;;;28.40;49.36;96500.06;5116589;28;20043;-36
2022/08/21 00:56:10;;;;;;;3.75;2.13;;;;;;;28.35;49.37;96509.31;5116927;28;20023;-35
2022/08/21 00:58:37;;;;;;;2.95;2.10;;;;;;;28.34;49.24;96498.69;5116371;28;20031;-35
2022/08/21 01:01:05;;;;;;;2.78;2.17;;;;;;;28.50;49.16;96497.53;5116469;28;20022;-35
2022/08/21 01:03:31;;;;;;;4.88;2.10;;;;;;;28.42;49.16;96502.31;5116262;28;20035;-35
2022/08/21 01:05:57;;;;;;;2.60;2.30;;;;;;;28.41;49.44;96495.97;5116568;28;20034;-36
2022/08/21 01:08:23;;;;;;;3.03;2.03;;;;;;;28.32;49.46;96492.91;5116190;27;20031;-35
2022/08/21 01:10:51;;;;;;;3.83;2.25;;;;;;;28.46;48.96;96499.91;5114909;28;20596;-35
2022/08/21 01:13:18;;;;;;;2.63;2.03;;;;;;;28.35;49.13;96495.34;5116167;28;20024;-35
2022/08/21 01:15:48;;;;;;;2.60;2.10;;;;;;;28.49;48.54;96504.41;5116120;28;20034;-35
2022/08/21 01:18:15;;;;;;;3.03;1.88;;;;;;;28.48;48.52;96494.53;5116037;28;20038;-36
2022/08/21 01:21:04;;;;;;;3.10;2.40;;;;;;;28.44;48.94;96494.88;5116083;28;20068;-35
2022/08/21 01:23:30;;;;;;;3.63;1.90;;;;;;;28.44;48.58;96494.13;5115803;28;20024;-35
2022/08/21 01:25:55;;;;;;;4.30;2.50;;;;;;;28.35;48.92;96486.25;5115921;28;20055;-36
2022/08/21 01:28:22;;;;;;;2.67;2.20;;;;;;;28.31;48.96;96491.44;5116115;28;20467;-35
2022/08/21 01:30:50;;;;;;;3.42;2.20;;;;;;;28.34;48.77;96493.09;5115700;28;20030;-36
2022/08/21 01:33:19;;;;;;;3.08;1.88;;;;;;;28.24;48.99;96496.38;5115820;28;20034;-36
2022/08/21 01:35:44;;;;;;;2.42;2.00;;;;;;;28.31;48.57;96500.53;5115745;28;20035;-35
2022/08/21 01:38:10;;;;;;;4.25;2.20;;;;;;;28.36;48.70;96487.75;5115480;28;20020;-35
2022/08/21 01:40:35;;;;;;;2.97;1.75;;;;;;;28.34;48.71;96485.50;5115508;28;20023;-35
2022/08/21 01:43:02;;;;;;;4.00;2.00;;;;;;;28.33;48.63;96484.00;5115721;28;20020;-36
2022/08/21 01:45:27;;;;;;;3.63;1.98;;;;;;;28.41;48.46;96487.63;5115401;28;20043;-35
2022/08/21 01:47:53;;;;;;;5.40;2.17;;;;;;;28.35;48.75;96481.41;5115587;28;20081;-35
2022/08/21 01:50:20;;;;;;;4.15;2.22;;;;;;;28.35;48.45;96481.41;5115227;28;20030;-34
2022/08/21 01:52:47;;;;;;;3.95;2.10;;;;;;;28.33;48.70;96484.00;5115447;28;20382;-36
2022/08/21 01:55:14;;;;;;;3.47;2.40;;;;;;;28.39;48.47;96475.50;5115287;28;20027;-35
2022/08/21 01:57:40;;;;;;;4.45;2.30;;;;;;;28.32;48.71;96478.94;5115197;28;20030;-35
2022/08/21 02:00:11;;;;;;;4.18;2.00;;;;;;;28.28;48.66;96479.31;5115378;28;20447;-35
2022/08/21 02:02:37;;;;;;;3.13;2.20;;;;;;;28.23;49.01;96469.78;5114042;28;20143;-37
2022/08/21 02:05:04;;;;;;;5.40;2.60;;;;;;;28.26;48.83;96467.94;5115281;28;20031;-35
2022/08/21 02:07:42;;;;;;;4.22;2.10;;;;;;;28.25;48.88;96474.81;5115036;28;20158;-35
2022/08/21 02:10:11;;;;;;;6.53;2.45;;;;;;;28.34;48.87;96473.59;5115044;28;20044;-35
2022/08/21 02:12:36;;;;;;;2.90;1.88;;;;;;;28.26;48.75;96470.75;5114846;28;20031;-35
2022/08/21 02:15:04;;;;;;;2.70;1.90;;;;;;;28.35;48.83;96470.25;5113832;28;20023;-36
2022/08/21 02:17:57;;;;;;;4.10;2.22;;;;;;;28.31;48.29;96474.69;5115027;28;20027;-35
2022/08/21 02:20:32;;;;;;;5.78;2.03;;;;;;;28.33;48.53;96470.03;5113998;28;20063;-35
2022/08/21 02:22:57;;;;;;;2.88;2.00;;;;;;;28.11;48.96;96465.75;5114870;28;20044;-35
2022/08/21 02:25:25;;;;;;;4.95;2.47;;;;;;;28.18;49.16;96470.69;5114884;28;20541;-35
2022/08/21 02:27:52;;;;;;;3.10;2.20;;;;;;;28.18;49.32;96473.47;5114922;28;20081;-35
2022/08/21 02:30:21;;;;;;;3.72;2.55;;;;;;;28.19;49.17;96472.16;5114540;28;20144;-35
2022/08/21 02:32:47;;;;;;;3.25;2.10;;;;;;;28.18;49.10;96472.72;5114476;28;20485;-36
2022/08/21 02:35:13;;;;;;;4.45;2.40;;;;;;;28.21;48.95;96471.63;5114742;28;20080;-35
2022/08/21 02:37:52;;;;;;;5.22;2.10;;;;;;;28.19;49.03;96466.56;5114507;28;20038;-35
2022/08/21 02:40:22;;;;;;;4.50;2.30;;;;;;;28.20;48.84;96462.50;5114373;28;20027;-35
2022/08/21 02:42:47;;;;;;;2.95;2.10;;;;;;;28.16;48.72;96464.88;5114306;28;20039;-35
2022/08/21 02:45:14;;;;;;;5.93;2.35;;;;;;;28.21;48.66;96466.03;5114316;28;20123;-35
2022/08/21 02:48:05;;;;;;;2.20;2.00;;;;;;;28.13;48.69;96456.84;5114276;28;20062;-35
2022/08/21 02:50:43;;;;;;;2.88;1.80;;;;;;;28.12;48.78;96453.28;5114571;28;20023;-35
2022/08/21 02:53:15;;;;;;;3.42;2.00;;;;;;;28.13;48.82;96459.63;5114404;28;20388;-36
2022/08/21 02:55:48;;;;;;;2.90;2.10;;;;;;;28.11;48.95;96462.19;5114223;28;20027;-35
2022/08/21 02:58:18;;;;;;;3.63;2.10;;;;;;;28.20;48.29;96459.72;5114600;28;20024;-35
2022/08/21 03:00:45;;;;;;;3.35;2.00;;;;;;;28.21;48.33;96460.47;5114217;28;20477;-35
2022/08/21 03:03:14;;;;;;;2.67;1.90;;;;;;;28.23;48.13;96457.88;5114000;28;20023;-35
2022/08/21 03:05:48;;;;;;;3.60;2.20;;;;;;;28.15;48.22;96462.63;5114061;28;20051;-35
2022/08/21 03:08:14;;;;;;;3.67;1.95;;;;;;;28.18;48.38;96453.94;5113699;28;20453;-34
2022/08/21 03:10:48;;;;;;;3.50;2.13;;;;;;;28.22;47.80;96456.38;5113955;28;20027;-35
2022/08/21 03:13:14;;;;;;;2.72;2.08;;;;;;;28.26;47.65;96453.25;5113910;28;20106;-35
2022/08/21 03:15:40;;;;;;;2.65;2.13;;;;;;;28.22;47.83;96448.00;5113916;28;20381;-35
2022/08/21 03:18:06;;;;;;;2.92;2.05;;;;;;;28.20;47.61;96448.56;5114131;28;20127;-35
2022/08/21 03:20:34;;;;;;;3.38;2.30;;;;;;;28.13;47.79;96449.22;5113961;27;20028;-35
2022/08/21 03:23:01;;;;;;;4.93;2.60;;;;;;;28.06;47.90;96444.31;5114039;28;20069;-36
2022/08/21 03:25:28;;;;;;;3.08;2.00;;;;;;;28.10;48.00;96443.97;5113905;28;20543;-36
2022/08/21 03:27:53;;;;;;;3.17;2.00;;;;;;;28.15;47.76;96445.88;5113929;28;20369;-35
2022/08/21 03:30:20;;;;;;;3.35;2.35;;;;;;;28.14;47.78;96445.13;5113552;28;20103;-35
2022/08/21 03:32:47;;;;;;;3.72;2.10;;;;;;;28.19;47.81;96447.06;5114823;28;20541;-35
2022/08/21 03:35:13;;;;;;;2.13;1.92;;;;;;;28.22;47.59;96445.97;5117928;28;20027;-35
2022/08/21 03:37:39;;;;;;;4.15;2.25;;;;;;;28.16;47.54;96448.13;5118068;28;20054;-35
2022/08/21 03:40:06;;;;;;;2.20;1.85;;;;;;;28.08;47.77;96450.09;5117859;28;20354;-34
2022/08/21 03:42:32;;;;;;;3.40;1.90;;;;;;;28.12;47.49;96442.13;5116830;28;20377;-35
2022/08/21 03:44:57;;;;;;;2.65;1.88;;;;;;;28.12;47.46;96439.34;5117993;28;20095;-35
2022/08/21 03:47:23;;;;;;;3.33;2.10;;;;;;;28.12;47.87;96442.13;5118003;28;20343;-35
2022/08/21 03:49:49;;;;;;;2.60;2.15;;;;;;;28.17;47.17;96444.06;5117790;28;20059;-35
2022/08/21 03:52:18;;;;;;;2.63;1.95;;;;;;;28.14;47.52;96438.81;5117621;27;20466;-35
2022/08/21 03:54:44;;;;;;;2.72;1.90;;;;;;;28.05;47.94;96437.25;5117742;28;20026;-35
2022/08/21 03:57:10;;;;;;;3.50;2.00;;;;;;;28.16;47.43;96434.19;5117983;28;20461;-35
2022/08/21 03:59:37;;;;;;;2.88;1.92;;;;;;;28.17;47.20;96444.06;5117881;28;20068;-36
2022/08/21 04:02:04;;;;;;;1.85;1.70;;;;;;;28.11;47.50;96449.00;5117384;28;20027;-35
2022/08/21 04:04:30;;;;;;;3.72;2.20;;;;;;;28.04;47.47;96441.34;5117426;28;20023;-36
2022/08/21 04:06:56;;;;;;;2.80;1.88;;;;;;;28.10;47.42;96439.16;5117790;28;20351;-35
2022/08/21 04:09:22;;;;;;;2.55;1.92;;;;;;;28.12;47.19;96444.19;5117302;28;20048;-35
2022/08/21 04:11:48;;;;;;;2.22;1.88;;;;;;;28.11;47.36;96440.66;5117223;28;20020;-35
2022/08/21 04:14:14;;;;;;;2.75;2.00;;;;;;;28.11;47.23;96451.78;5117215;28;20070;-36
2022/08/21 04:16:41;;;;;;;2.95;1.90;;;;;;;28.06;47.58;96452.69;5117258;28;20042;-36
2022/08/21 04:19:07;;;;;;;3.60;1.98;;;;;;;28.13;47.09;96451.25;5117088;27;20102;-35
2022/08/21 04:21:33;;;;;;;4.53;2.63;;;;;;;28.12;47.41;96452.53;5117259;28;20518;-36
2022/08/21 04:23:59;;;;;;;2.28;2.03;;;;;;;28.11;47.46;96449.00;5116987;28;20031;-35
2022/08/21 04:26:25;;;;;;;2.67;2.03;;;;;;;28.00;47.68;96449.28;5117276;28;20031;-36
2022/08/21 04:28:52;;;;;;;2.20;1.92;;;;;;;28.07;47.04;96448.59;5116927;28;20030;-35
2022/08/21 04:31:17;;;;;;;2.33;1.90;;;;;;;28.14;47.13;96453.50;5116895;28;20041;-35
2022/08/21 04:33:44;;;;;;;3.30;2.03;;;;;;;28.10;46.95;96452.34;5116793;28;20019;-35
2022/08/21 04:36:10;;;;;;;4.50;2.10;;;;;;;28.07;47.43;96450.63;5117147;28;20031;-36
2022/08/21 04:38:36;;;;;;;2.25;1.90;;;;;;;28.11;47.17;96451.03;5116924;28;20034;-35
2022/08/21 04:41:02;;;;;;;2.40;1.95;;;;;;;28.14;46.99;96449.97;5116741;28;20016;-35
2022/08/21 04:43:28;;;;;;;2.85;1.77;;;;;;;28.11;47.02;96451.78;5116642;28;20481;-35
2022/08/21 04:45:54;;;;;;;2.83;1.92;;;;;;;28.13;46.64;96454.03;5116782;28;20026;-35
2022/08/21 04:48:23;;;;;;;2.60;2.10;;;;;;;28.16;46.73;96458.53;5116911;28;20039;-35
2022/08/21 04:50:54;;;;;;;2.13;1.80;;;;;;;28.17;46.93;96455.22;5116475;28;20430;-35
2022/08/21 04:53:52;;;;;;;3.95;1.92;;;;;;;28.09;46.73;96454.38;5116703;28;20027;-36
2022/08/21 04:56:24;;;;;;;3.78;1.73;;;;;;;28.13;46.85;96465.19;5101067;28;20476;-37
2022/08/21 04:58:55;;;;;;;2.63;1.80;;;;;;;28.12;46.91;96464.44;5116564;28;20027;-35
2022/08/21 05:01:24;;;;;;;3.13;1.92;;;;;;;28.07;46.57;96476.47;5116564;28;20023;-35
2022/08/21 05:03:55;;;;;;;2.42;1.88;;;;;;;28.14;46.49;96469.47;5116505;28;20023;-35
2022/08/21 05:06:22;;;;;;;2.25;1.90;;;;;;;28.09;46.49;96476.69;5116280;28;20030;-35
2022/08/21 05:08:51;;;;;;;2.53;2.03;;;;;;;28.18;46.36;96476.25;5116027;28;20043;-35
2022/08/21 05:11:17;;;;;;;2.47;1.98;;;;;;;28.13;46.41;96484.72;5116323;28;20521;-35
2022/08/21 05:13:43;;;;;;;2.90;1.90;;;;;;;28.18;46.10;96483.88;5116198;28;20111;-35
2022/08/21 05:16:09;;;;;;;3.30;2.00;;;;;;;28.07;46.73;96484.84;5116047;28;20033;-34
2022/08/21 05:18:34;;;;;;;2.65;2.20;;;;;;;28.09;46.73;96482.25;5115904;28;20028;-36
2022/08/21 05:20:59;;;;;;;4.90;2.22;;;;;;;28.20;45.76;96487.59;5115872;28;20388;-35
2022/08/21 05:23:25;;;;;;;3.22;1.90;;;;;;;28.05;46.37;96489.47;5116215;28;20023;-34
2022/08/21 05:25:52;;;;;;;2.70;2.10;;;;;;;28.10;46.59;96486.53;5114501;28;20030;-35
2022/08/21 05:28:18;;;;;;;2.72;1.80;;;;;;;28.14;46.32;96484.19;5114775;28;20019;-36
2022/08/21 05:30:44;;;;;;;2.17;1.83;;;;;;;28.16;46.04;96492.75;5115743;28;20030;-35
2022/08/21 05:33:10;;;;;;;2.17;1.70;;;;;;;28.11;46.44;96487.28;5115713;28;20389;-36
2022/08/21 05:35:35;;;;;;;3.60;2.10;;;;;;;28.15;45.92;96484.94;5114249;28;20023;-36
2022/08/21 05:38:02;;;;;;;4.13;2.00;;;;;;;28.16;46.24;96489.22;5108346;28;20474;-35
2022/08/21 05:40:28;;;;;;;4.95;2.30;;;;;;;28.10;46.53;96483.75;5132561;27;20027;-35
2022/08/21 05:42:55;;;;;;;2.35;2.15;;;;;;;28.12;46.51;96488.78;5129406;27;20389;-35
2022/08/21 05:45:23;;;;;;;4.05;2.30;;;;;;;28.11;46.42;96490.84;5113832;28;20023;-35
2022/08/21 05:47:48;;;;;;;3.05;2.15;;;;;;;28.13;46.28;96481.94;5113865;28;20378;-35
2022/08/21 05:50:13;;;;;;;2.85;2.40;;;;;;;28.06;46.96;96488.94;5113455;28;20023;-35
2022/08/21 05:52:39;;;;;;;2.63;2.30;;;;;;;28.10;46.77;96483.00;5113709;28;20456;-35
2022/08/21 05:55:05;;;;;;;2.78;2.15;;;;;;;28.11;46.64;96488.03;5118156;27;20030;-35
2022/08/21 05:57:30;;;;;;;3.25;2.45;;;;;;;28.06;46.99;96480.56;5133896;27;20023;-36
2022/08/21 05:59:56;;;;;;;3.65;2.50;;;;;;;28.10;46.99;96483.00;5134241;27;20385;-35
2022/08/21 06:02:22;;;;;;;3.67;2.55;;;;;;;28.16;46.80;96481.59;5132434;27;20011;-35
2022/08/21 06:04:48;;;;;;;4.13;2.72;;;;;;;28.15;47.21;96479.34;5134030;27;20019;-34
2022/08/21 06:07:14;;;;;;;4.15;2.53;;;;;;;28.13;47.04;96474.31;5133935;27;20540;-35
2022/08/21 06:09:40;;;;;;;4.05;2.50;;;;;;;28.05;47.06;96476.28;5134001;27;20134;-34
2022/08/21 06:12:09;;;;;;;3.88;2.40;;;;;;;28.00;47.46;96471.56;5133854;27;20023;-35
2022/08/21 06:14:35;;;;;;;2.95;2.60;;;;;;;28.15;47.15;96465.41;5133931;27;20060;-35
2022/08/21 06:17:06;;;;;;;3.10;2.50;;;;;;;28.16;47.21;96464.88;5133815;27;20038;-35
2022/08/21 06:19:32;;;;;;;4.32;2.58;;;;;;;28.11;47.12;96462.94;5133854;27;20110;-35
2022/08/21 06:21:58;;;;;;;3.63;2.63;;;;;;;28.09;47.38;96459.19;5133665;27;20111;-35
2022/08/21 06:24:24;;;;;;;3.42;2.40;;;;;;;28.07;47.33;96454.16;5133378;27;20107;-35
2022/08/21 06:26:50;;;;;;;3.10;2.15;;;;;;;28.08;47.30;96458.44;5133417;27;20031;-35
2022/08/21 06:29:19;;;;;;;3.25;2.38;;;;;;;28.09;47.48;96453.63;5133997;27;20053;-37
2022/08/21 06:31:46;;;;;;;3.78;2.42;;;;;;;28.18;46.75;96461.56;5133552;27;20075;-35
2022/08/21 06:34:11;;;;;;;2.33;1.88;;;;;;;28.14;47.07;96452.75;5133395;27;20465;-36
2022/08/21 06:36:37;;;;;;;2.63;1.98;;;;;;;28.11;47.33;96460.16;5133189;27;20027;-35
2022/08/21 06:39:03;;;;;;;4.40;2.30;;;;;;;28.18;46.95;96462.31;5133218;27;20023;-35
2022/08/21 06:41:29;;;;;;;2.10;1.90;;;;;;;28.16;47.03;96470.44;5133554;27;20023;-35
2022/08/21 06:43:56;;;;;;;3.65;2.10;;;;;;;28.18;47.09;96467.16;5133397;27;20097;-35
2022/08/21 06:46:23;;;;;;;2.63;1.90;;;;;;;28.16;47.18;96466.91;5133064;27;20019;-35
2022/08/21 06:48:49;;;;;;;2.85;2.15;;;;;;;28.23;46.76;96466.25;5132948;27;20023;-35
2022/08/21 06:51:14;;;;;;;3.30;2.13;;;;;;;28.25;46.46;96472.03;5133105;27;20106;-35
2022/08/21 06:53:40;;;;;;;2.20;2.00;;;;;;;28.27;46.61;96471.50;5133050;27;20125;-35
2022/08/21 06:56:05;;;;;;;3.85;2.10;;;;;;;28.25;46.44;96472.03;5133225;27;20023;-35
2022/08/21 06:58:31;;;;;;;2.22;2.00;;;;;;;28.21;46.54;96466.78;5132955;27;20106;-35
2022/08/21 07:00:56;;;;;;;3.55;2.00;;;;;;;28.23;46.45;96480.94;5131487;27;20076;-34
2022/08/21 07:03:30;;;;;;;2.58;1.75;;;;;;;28.22;46.31;96468.28;5131213;27;20058;-35
2022/08/21 07:05:58;;;;;;;2.80;1.80;;;;;;;28.23;46.20;96466.25;5133013;27;20079;-36
2022/08/21 07:08:24;;;;;;;2.60;1.88;;;;;;;28.27;46.27;96465.91;5132735;27;20034;-35
2022/08/21 07:10:49;;;;;;;2.10;1.90;;;;;;;28.20;46.51;96462.50;5132819;27;20027;-36
2022/08/21 07:13:15;;;;;;;2.70;2.05;;;;;;;28.21;46.12;96466.78;5132501;27;20085;-35
2022/08/21 07:15:41;;;;;;;2.45;1.70;;;;;;;28.23;45.94;96469.78;5132743;27;20721;-35
2022/08/21 07:18:08;;;;;;;3.25;2.00;;;;;;;28.20;45.98;96465.28;5132731;27;20472;-35
2022/08/21 07:20:33;;;;;;;2.72;1.88;;;;;;;28.27;45.80;96463.13;5132814;27;20377;-35
2022/08/21 07:23:04;;;;;;;3.45;1.90;;;;;;;28.10;46.18;96478.19;5132867;27;20027;-35
2022/08/21 07:25:29;;;;;;;3.38;2.03;;;;;;;28.23;46.23;96469.78;5132576;27;20488;-35
2022/08/21 07:27:55;;;;;;;2.22;1.80;;;;;;;28.26;46.04;96472.78;5132687;27;20031;-35
2022/08/21 07:30:21;;;;;;;2.28;1.75;;;;;;;28.23;46.13;96482.97;5132589;27;20049;-35
2022/08/21 07:32:49;;;;;;;2.28;2.00;;;;;;;28.23;45.65;96477.41;5132536;27;20076;-35
2022/08/21 07:35:15;;;;;;;1.83;1.60;;;;;;;28.28;45.94;96475.78;5132572;27;20023;-35
2022/08/21 07:37:40;;;;;;;2.40;1.83;;;;;;;28.21;45.84;96477.19;5132273;27;20026;-35
2022/08/21 07:40:06;;;;;;;2.50;1.90;;;;;;;28.21;46.17;96472.38;5132514;27;20027;-35
2022/08/21 07:42:32;;;;;;;2.78;1.80;;;;;;;28.19;46.09;96482.56;5132407;27;20390;-36
2022/08/21 07:44:57;;;;;;;2.28;1.95;;;;;;;28.13;46.23;96482.69;5132655;27;20034;-36
2022/08/21 07:47:23;;;;;;;1.80;1.60;;;;;;;28.07;46.19;96472.94;5132567;27;20172;-35
2022/08/21 07:49:48;;;;;;;3.30;1.75;;;;;;;27.99;46.10;96478.44;5132253;27;20019;-35
2022/08/21 07:52:14;;;;;;;3.08;1.60;;;;;;;28.16;45.28;96472.47;5132351;27;20100;-35
2022/08/21 07:54:40;;;;;;;2.33;1.90;;;;;;;28.16;45.44;96481.59;5132382;27;20029;-36
2022/08/21 07:57:05;;;;;;;4.75;1.63;;;;;;;28.22;45.21;96473.84;5131995;27;20050;-35
2022/08/21 07:59:30;;;;;;;2.53;1.50;;;;;;;28.12;45.65;96474.84;5132400;27;20015;-35
2022/08/21 08:01:56;;;;;;;2.83;1.98;;;;;;;28.16;45.42;96470.44;5132199;27;20023;-35
2022/08/21 08:04:22;;;;;;;3.25;1.63;;;;;;;28.14;45.49;96477.84;5130655;27;20034;-35
2022/08/21 08:06:48;;;;;;;1.85;1.50;;;;;;;28.24;45.20;96470.53;5132332;27;20418;-35
2022/08/21 08:09:13;;;;;;;2.35;1.80;;;;;;;28.12;45.15;96475.59;5132037;27;20122;-35
2022/08/21 08:11:43;;;;;;;2.03;1.50;;;;;;;28.09;45.60;96470.34;5132256;27;20461;-35
2022/08/21 08:14:09;;;;;;;1.95;1.60;;;;;;;28.21;45.22;96466.78;5132002;27;20050;-35
2022/08/21 08:16:35;;;;;;;1.92;1.55;;;;;;;28.27;45.00;96463.13;5132123;27;20433;-35
2022/08/21 08:19:00;;;;;;;2.83;1.40;;;;;;;28.09;45.23;96465.53;5133367;27;20030;-35
2022/08/21 08:21:27;;;;;;;4.45;1.80;;;;;;;28.04;45.12;96468.47;5136180;27;20532;-35
2022/08/21 08:23:53;;;;;;;1.55;1.45;;;;;;;28.12;45.37;96463.69;5135975;27;20031;-35
2022/08/21 08:26:18;;;;;;;1.88;1.38;;;;;;;28.11;45.03;96460.16;5135749;27;20106;-35
2022/08/21 08:28:46;;;;;;;3.33;1.55;;;;;;;28.16;45.12;96461.31;5135871;27;20080;-35
2022/08/21 08:31:11;;;;;;;3.15;1.50;;;;;;;28.18;44.58;96456.00;5133925;27;20073;-35
2022/08/21 08:33:37;;;;;;;1.92;1.70;;;;;;;28.20;45.26;96459.72;5115199;28;20739;-35
2022/08/21 08:36:03;;;;;;;4.18;1.40;;;;;;;27.52;45.39;96462.50;5114576;28;20028;-32
2022/08/21 08:38:29;;;;;;;2.88;1.45;;;;;;;27.58;45.87;96456.81;5114775;28;20028;-35
2022/08/21 08:41:03;;;;;;;3.58;1.75;;;;;;;27.67;44.40;96455.63;5114695;28;20038;-34
2022/08/21 08:43:31;;;;;;;2.42;1.33;;;;;;;27.88;43.70;96456.41;5115236;28;20026;-36
2022/08/21 08:46:01;;;;;;;2.38;1.48;;;;;;;27.80;44.56;96453.53;5114981;28;20023;-34
2022/08/21 08:48:47;;;;;;;2.60;2.10;;;;;;;27.75;44.57;96453.66;5114853;27;20036;-34
2022/08/21 08:51:23;;;;;;;1.38;1.27;;;;;;;27.85;44.73;96454.69;5115089;28;20023;-34
2022/08/21 08:53:55;;;;;;;3.22;1.67;;;;;;;27.70;45.83;96444.13;5114932;28;20454;-32
2022/08/21 08:56:29;;;;;;;2.03;1.50;;;;;;;28.16;44.42;96448.13;5114325;28;20795;-36
2022/08/21 08:59:01;;;;;;;2.88;1.60;;;;;;;28.70;43.70;96443.75;5113175;28;20020;-37
2022/08/21 09:01:27;;;;;;;3.33;1.55;;;;;;;28.75;43.57;96445.66;5114429;28;20012;-36
2022/08/21 09:03:52;;;;;;;2.85;1.65;;;;;;;28.85;43.58;96443.13;5112764;28;20084;-37
2022/08/21 09:06:34;;;;;;;1.77;1.48;;;;;;;29.17;42.79;96445.56;5114357;27;20095;-36
2022/08/21 09:09:13;;;;;;;2.30;1.63;;;;;;;29.15;42.70;96436.97;5114248;28;20051;-39
2022/08/21 09:11:54;;;;;;;3.22;1.95;;;;;;;28.87;42.38;96441.28;5108903;28;20026;-36
2022/08/21 09:14:45;;;;;;;3.15;1.63;;;;;;;28.65;43.04;96446.69;5112581;28;20023;-37
2022/08/21 09:17:10;;;;;;;3.45;1.67;;;;;;;28.99;42.66;96440.97;5107800;27;20036;-36
2022/08/21 09:20:17;;;;;;;2.70;1.30;;;;;;;29.20;42.52;96441.63;5115246;28;20030;-36
2022/08/21 09:22:55;;;;;;;2.53;1.52;;;;;;;29.17;42.76;96437.16;5114416;28;20034;-36
2022/08/21 09:25:25;;;;;;;2.58;1.45;;;;;;;29.26;42.83;96442.25;5115160;28;20103;-37
2022/08/21 09:27:51;;;;;;;1.73;1.27;;;;;;;29.22;42.88;96430.66;5110122;28;20094;-37
2022/08/21 09:30:19;;;;;;;2.47;1.55;;;;;;;29.38;42.74;96437.84;5114100;28;20492;-36
2022/08/21 09:32:44;;;;;;;2.03;1.63;;;;;;;29.22;42.44;96441.84;5115758;28;20032;-37
2022/08/21 09:35:19;;;;;;;2.70;1.50;;;;;;;29.20;42.16;96436.03;5115639;28;20039;-36
2022/08/21 09:37:59;;;;;;;1.67;1.40;;;;;;;29.10;42.87;96435.06;5115869;27;20404;-37
2022/08/21 09:40:45;;;;;;;1.85;1.38;;;;;;;29.13;42.22;96429.13;5115813;28;20019;-36
2022/08/21 09:43:22;;;;;;;1.77;1.27;;;;;;;28.98;41.92;96434.63;5115701;28;20027;-37
2022/08/21 09:46:00;;;;;;;1.80;1.48;;;;;;;28.98;42.95;96433.88;5113233;27;20114;-37
2022/08/21 09:48:26;;;;;;;2.40;1.50;;;;;;;29.00;42.77;96429.25;5113701;28;20036;-37
2022/08/21 09:50:53;;;;;;;2.50;1.65;;;;;;;28.97;43.22;96429.59;5113587;28;20028;-37
2022/08/21 09:53:28;;;;;;;2.17;1.30;;;;;;;28.97;43.17;96424.03;5113360;28;20179;-36
2022/08/21 09:58:51;;;;;;;3.33;1.33;;;;;;;28.93;42.39;96419.53;5113303;28;20041;-36
2022/08/21 10:01:21;;;;;;;1.95;1.45;;;;;;;29.16;43.12;96421.72;5113404;28;20034;-37
2022/08/21 10:03:47;;;;;;;1.92;1.65;;;;;;;29.02;43.04;96428.72;5111741;28;20026;-37
2022/08/21 10:06:26;;;;;;;1.30;1.20;;;;;;;29.04;43.01;96426.13;5113313;28;20058;-37
2022/08/21 10:09:09;;;;;;;2.25;1.33;;;;;;;28.87;42.51;96413.38;5112590;28;20500;-36
2022/08/21 10:11:35;;;;;;;2.92;1.40;;;;;;;28.79;41.65;96415.38;5113309;28;20043;-36
2022/08/21 10:14:28;;;;;;;1.20;1.10;;;;;;;28.85;42.47;96413.16;5111376;28;20191;-37
2022/08/21 10:17:12;;;;;;;2.80;1.73;;;;;;;28.66;42.02;96417.50;5113016;27;20078;-37
2022/08/21 10:20:09;;;;;;;2.65;1.48;;;;;;;28.80;42.58;96413.34;5112969;28;20473;-36
2022/08/21 10:22:47;;;;;;;2.28;1.45;;;;;;;28.82;41.81;96419.84;5112773;27;20024;-36
2022/08/21 10:25:27;;;;;;;2.15;1.50;;;;;;;28.93;42.52;96418.81;5112872;28;20031;-37
2022/08/21 10:28:03;;;;;;;2.92;1.30;;;;;;;28.88;42.53;96414.13;5111711;28;20362;-38
2022/08/21 10:30:49;;;;;;;1.80;1.17;;;;;;;28.83;42.41;96410.16;5112120;28;20026;-37
2022/08/21 10:33:21;;;;;;;1.80;1.20;;;;;;;28.82;42.55;96410.72;5112022;28;20056;-36
2022/08/21 10:36:01;;;;;;;1.85;1.40;;;;;;;28.87;42.64;96413.38;5112645;28;20032;-37
2022/08/21 10:38:27;;;;;;;1.73;1.48;;;;;;;28.78;42.76;96394.34;5112724;28;20077;-37
2022/08/21 10:41:18;;;;;;;2.03;1.20;;;;;;;28.89;43.05;96399.63;5112654;28;20036;-36
2022/08/21 10:43:59;;;;;;;1.23;1.13;;;;;;;28.81;43.07;96398.81;5112499;28;20507;-37
2022/08/21 10:46:52;;;;;;;1.63;1.30;;;;;;;28.76;42.67;96393.38;5112148;28;20028;-37
2022/08/21 10:49:24;;;;;;;1.58;1.20;;;;;;;28.78;41.97;96394.34;5112108;28;20104;-37
2022/08/21 10:51:58;;;;;;;1.40;1.10;;;;;;;28.83;42.65;96393.44;5112036;28;20024;-36
2022/08/21 10:54:23;;;;;;;1.77;1.67;;;;;;;28.86;42.25;96386.75;5112391;28;20400;-36
2022/08/21 10:56:56;;;;;;;1.67;1.30;;;;;;;28.86;42.65;96380.41;5111957;28;20144;-36
2022/08/21 10:59:34;;;;;;;3.08;1.35;;;;;;;28.77;43.06;96381.66;5112580;28;20669;-36
2022/08/21 11:02:26;;;;;;;2.30;1.27;;;;;;;28.80;42.56;96379.84;5112240;28;20062;-36
2022/08/21 11:05:11;;;;;;;2.30;1.20;;;;;;;28.82;42.92;96374.44;5110220;27;20422;-36
2022/08/21 11:07:45;;;;;;;1.45;1.13;;;;;;;28.87;42.51;96381.91;5112028;28;20489;-37
2022/08/21 11:10:44;;;;;;;2.72;1.30;;;;;;;28.78;42.50;96366.44;5111438;28;20044;-37
2022/08/21 11:13:39;;;;;;;1.83;1.15;;;;;;;28.77;42.76;96364.91;5109482;28;20036;-36
2022/08/21 11:16:16;;;;;;;2.10;1.20;;;;;;;28.78;42.87;96366.44;5109901;28;20035;-37
2022/08/21 11:18:47;;;;;;;1.52;1.27;;;;;;;28.84;42.91;96369.81;5112115;28;20377;-37
2022/08/21 11:22:02;;;;;;;2.25;1.10;;;;;;;28.83;43.01;96359.94;5111862;28;20137;-38
2022/08/21 11:24:47;;;;;;;1.85;1.15;;;;;;;28.79;42.97;96361.59;5102610;28;20561;-36
2022/08/21 11:27:27;;;;;;;2.30;1.13;;;;;;;28.78;43.20;96360.06;5111979;28;20038;-36
2022/08/21 11:29:58;;;;;;;1.20;1.10;;;;;;;28.73;43.01;96358.94;5111885;28;20020;-36
2022/08/21 11:32:41;;;;;;;1.88;1.50;;;;;;;28.78;43.35;96355.28;5111612;28;20028;-38
2022/08/21 11:35:20;;;;;;;1.35;1.23;;;;;;;28.79;43.20;96353.97;5111608;28;20028;-40
2022/08/21 11:38:01;;;;;;;1.38;1.20;;;;;;;28.77;43.15;96353.75;5111846;28;20027;-36
2022/08/21 11:41:03;;;;;;;3.00;1.08;;;;;;;28.77;43.13;96350.97;5111901;28;20039;-37
2022/08/21 11:43:56;;;;;;;2.17;1.20;;;;;;;28.75;43.14;96345.16;5111838;28;20077;-36
2022/08/21 11:46:30;;;;;;;1.67;1.23;;;;;;;28.74;43.10;96343.69;5111501;28;20024;-37
2022/08/21 11:49:05;;;;;;;1.88;1.08;;;;;;;28.81;42.85;96340.19;5111545;28;20031;-36
2022/08/21 11:51:42;;;;;;;1.33;1.10;;;;;;;28.80;43.27;96349.13;5111999;28;20032;-37